Terminal Aerodrome Forecast
Issued by NWS Charleston, WV

Home | Current Version | Previous Version | Text Only | Print | Product List | Glossary On
Versions: 1 2 3 4 5 6 7 8 9 10 11 12 13 14 15 16 17 18 19 20 21 22 23 24 25 26
000
FTUS41 KRLX 210528
TAFPKB
TAF
KPKB 210528Z 2106/2206 19005KT P6SM SCT070
     FM211700 23009G16KT 4SM SHRA BKN035
     FM212000 35008KT P6SM SHRA BKN015=

USA.gov is the U.S. government's official web portal to all federal, state and local government web resources and services.